Roanoke Rapids, NC

8:18 AM EDT on August 28, 2016 (GMT -0400)
Roanoke Rapids Old Airport | | Change Station

Elev 266 ft 36.44 °N, 77.72 °W | Updated 3 minutes ago

Overcast
Overcast
72.1 °F
Feels Like 72 °F
N
6.8
Wind Variable Wind from East

Today
High -- | Low -- °F
--% Chance of Precip.
Yesterday
High -- | Low -- °F
Precip. -- in
Pressure 30.19 in
Visibility 1.5 miles
Clouds Overcast 300 ft
Heat Index 72 °F
Dew Point 66 °F
Humidity 81%
Rainfall 0.00 in
Snow Depth Not available.
6:39 AM 7:43 PM
Waning Crescent, 16% visible
METAR KIXA 281200Z AUTO 35006KT 1 1/2SM BR OVC003 21/21 A3019 RMK AO2
Pressure 30.19 in
Visibility 1.5 miles
Clouds Overcast 300 ft
Heat Index 72 °F
Dew Point 66 °F
Humidity 81%
Rainfall 0.00 in
Snow Depth Not available.
6:39 AM 7:43 PM
Waning Crescent, 16% visible
METAR KIXA 281200Z AUTO 35006KT 1 1/2SM BR OVC003 21/21 A3019 RMK AO2

10-Day Weather Forecast

Almanac

Astronomy

Aug. 28, 2016 Rise Set
Actual Time
Civil Twilight
Nautical Twilight
Astronomical Twilight
Moon
Length of Visible Light
Length of Day
Tomorrow will be .
, % of the Moon is Illuminated

Today's Extremes

State Highs State Lows

Community

WunderPhotos

Upload Photos

1,935,557 photos uploaded!

WunderBlog® & News

Nearby

Air Quality

  Air Quality AQ Index Pollutant
Not available.

Snow Depth

Station Depth Elevation

Earthquake Activity

City Distance Mag. Time & Date
Minimum magnitude displayed is 2.5.

Coastal Water Temperatures

Place Temperature

Stations

Nearby Weather Stations

Station Location Temp. Windchill Dew Point Humidity Wind Precip. Elev Updated Type
                   

Watches & Warnings

There are currently no watches in effect.